createdAt,value
2023-05-05T00:01:29.676Z,100.00
2023-05-05T00:05:30.965Z,100.00
2023-05-05T00:09:36.330Z,100.00
2023-05-05T00:13:41.142Z,100.00
2023-05-05T00:17:43.795Z,100.00
2023-05-05T00:21:45.016Z,100.00
2023-05-05T00:25:49.440Z,100.00
2023-05-05T00:29:49.346Z,100.00
2023-05-05T00:34:02.910Z,100.00
2023-05-05T00:38:07.137Z,100.00
2023-05-05T00:42:12.949Z,100.00
2023-05-05T00:46:25.105Z,100.00
2023-05-05T00:50:26.983Z,100.00
2023-05-05T00:54:27.704Z,100.00
2023-05-05T00:58:31.550Z,100.00
2023-05-05T01:02:37.759Z,100.00
2023-05-05T01:06:49.925Z,100.00
2023-05-05T01:10:59.043Z,100.00
2023-05-05T01:15:24.161Z,100.00
2023-05-05T01:19:37.689Z,100.00
2023-05-05T01:23:58.540Z,100.00
2023-05-05T01:28:11.573Z,100.00
2023-05-05T01:32:17.952Z,100.00
2023-05-05T01:36:26.069Z,100.00
2023-05-05T01:40:33.414Z,100.00
2023-05-05T01:48:59.818Z,100.00
2023-05-05T01:53:07.641Z,100.00
2023-05-05T01:57:16.168Z,100.00
2023-05-05T02:01:27.938Z,100.00
2023-05-05T02:05:35.214Z,100.00
2023-05-05T02:09:39.294Z,100.00
2023-05-05T02:13:46.748Z,100.00
2023-05-05T02:17:52.089Z,100.00
2023-05-05T02:21:55.463Z,100.00
2023-05-05T02:26:00.692Z,100.00
2023-05-05T02:30:05.723Z,100.00
2023-05-05T02:34:08.434Z,100.00
2023-05-05T02:38:17.511Z,100.00
2023-05-05T02:42:22.410Z,100.00
2023-05-05T02:46:23.617Z,100.00
2023-05-05T02:50:25.242Z,100.00
2023-05-05T02:54:32.069Z,100.00
2023-05-05T02:58:37.216Z,100.00
2023-05-05T03:02:46.162Z,100.00
2023-05-05T03:06:51.861Z,100.00
2023-05-05T03:11:04.076Z,100.00
2023-05-05T03:15:07.498Z,100.00
2023-05-05T03:19:09.968Z,100.00
2023-05-05T03:23:11.215Z,100.00
2023-05-05T03:27:13.818Z,100.00
2023-05-05T03:31:18.608Z,100.00
2023-05-05T03:35:56.260Z,100.00
2023-05-05T03:39:56.434Z,100.00
2023-05-05T03:44:05.648Z,100.00
2023-05-05T03:48:06.729Z,100.00
2023-05-05T03:52:07.842Z,100.00
2023-05-05T03:56:11.056Z,100.00
2023-05-05T04:00:18.216Z,100.00
2023-05-05T04:04:19.529Z,100.00
2023-05-05T04:08:32.846Z,100.00
2023-05-05T04:12:32.910Z,100.00
2023-05-05T04:16:39.863Z,100.00
2023-05-05T04:20:43.284Z,100.00
2023-05-05T04:24:44.215Z,100.00
2023-05-05T04:28:47.459Z,100.00
2023-05-05T04:32:51.085Z,100.00
2023-05-05T04:36:54.443Z,100.00
2023-05-05T04:40:55.972Z,100.00
2023-05-05T04:45:03.383Z,100.00
2023-05-05T04:49:06.293Z,100.00
2023-05-05T04:53:07.142Z,100.00
2023-05-05T04:57:07.366Z,100.00
2023-05-05T05:01:11.697Z,100.00
2023-05-05T05:05:14.696Z,100.00
2023-05-05T05:09:15.852Z,100.00
2023-05-05T05:13:15.804Z,100.00
2023-05-05T05:17:17.646Z,100.00
2023-05-05T05:21:33.074Z,100.00
2023-05-05T05:25:40.946Z,100.00
2023-05-05T05:29:41.689Z,100.00
2023-05-05T05:33:49.906Z,100.00
2023-05-05T05:37:54.976Z,100.00
2023-05-05T05:42:06.677Z,100.00
2023-05-05T05:46:29.577Z,100.00
2023-05-05T05:50:32.158Z,100.00
2023-05-05T05:54:47.099Z,100.00
2023-05-05T05:58:52.124Z,100.00
2023-05-05T06:03:01.687Z,100.00
2023-05-05T06:07:11.251Z,100.00
2023-05-05T06:11:14.219Z,100.00
2023-05-05T06:15:18.284Z,100.00
2023-05-05T06:19:22.273Z,100.00
2023-05-05T06:23:33.451Z,100.00
2023-05-05T06:28:13.702Z,100.00
2023-05-05T06:32:32.939Z,100.00
2023-05-05T06:36:51.096Z,100.00
2023-05-05T06:40:54.586Z,100.00
2023-05-05T06:44:59.336Z,100.00
2023-05-05T06:49:09.050Z,100.00
2023-05-05T06:53:27.389Z,100.00
2023-05-05T06:57:43.745Z,100.00
2023-05-05T07:06:13.090Z,100.00
2023-05-05T07:10:23.227Z,100.00
2023-05-05T07:14:35.391Z,100.00
2023-05-05T07:18:39.030Z,100.00
2023-05-05T07:22:43.119Z,100.00
2023-05-05T07:27:00.009Z,100.00
2023-05-05T07:31:03.467Z,100.00
2023-05-05T07:35:06.192Z,100.00
2023-05-05T07:39:28.915Z,100.00
2023-05-05T07:43:39.301Z,100.00
2023-05-05T07:47:53.984Z,100.00
2023-05-05T07:51:55.608Z,100.00
2023-05-05T07:55:59.480Z,100.00
2023-05-05T08:00:08.084Z,100.00
2023-05-05T08:04:12.630Z,100.00
2023-05-05T08:08:16.016Z,100.00
2023-05-05T08:12:21.294Z,100.00
2023-05-05T08:16:23.736Z,100.00
2023-05-05T08:20:24.868Z,97.92
2023-05-05T08:24:26.091Z,96.71
2023-05-05T08:28:33.666Z,97.42
2023-05-05T08:32:34.710Z,98.51
2023-05-05T08:36:38.769Z,99.10
2023-05-05T08:40:47.660Z,96.64
2023-05-05T08:44:57.781Z,94.82
2023-05-05T08:49:04.249Z,97.30
2023-05-05T08:53:23.522Z,96.43
2023-05-05T08:57:28.274Z,92.15
2023-05-05T09:01:39.938Z,91.80
2023-05-05T09:05:44.128Z,86.67
2023-05-05T09:10:02.640Z,89.19
2023-05-05T09:14:16.393Z,86.63
2023-05-05T09:27:34.225Z,88.38
2023-05-05T09:31:39.063Z,88.52
2023-05-05T09:36:03.440Z,85.89
2023-05-05T09:40:16.900Z,84.72
2023-05-05T09:44:20.367Z,83.16
2023-05-05T09:48:47.261Z,82.74
2023-05-05T09:53:12.359Z,84.37
2023-05-05T09:57:47.921Z,84.67
2023-05-05T10:02:27.603Z,83.70
2023-05-05T10:06:55.106Z,82.31
2023-05-05T10:11:31.291Z,81.63
2023-05-05T10:15:51.673Z,81.68
2023-05-05T10:20:26.628Z,82.80
2023-05-05T10:24:52.921Z,85.30
2023-05-05T10:29:13.384Z,85.10
2023-05-05T10:33:37.091Z,85.01
2023-05-05T10:37:49.939Z,85.12
2023-05-05T10:42:08.868Z,87.48
2023-05-05T10:46:38.743Z,89.47
2023-05-05T10:51:17.011Z,85.60
2023-05-05T10:55:39.636Z,84.50
2023-05-05T10:59:49.994Z,80.37
2023-05-05T11:04:23.096Z,79.48
2023-05-05T11:08:43.759Z,77.66
2023-05-05T11:13:19.447Z,78.34
2023-05-05T11:23:07.917Z,79.17
2023-05-05T11:28:03.044Z,78.21
2023-05-05T11:32:52.086Z,73.86
2023-05-05T11:37:30.111Z,70.75
2023-05-05T11:47:49.568Z,70.62
2023-05-05T11:52:12.947Z,72.55
2023-05-05T12:01:57.302Z,71.46
2023-05-05T12:06:31.762Z,72.03
2023-05-05T12:25:51.902Z,78.40
2023-05-05T13:27:24.922Z,70.69
2023-05-05T13:32:16.248Z,68.91
2023-05-05T13:36:54.442Z,68.68
2023-05-05T13:41:16.863Z,67.38
2023-05-05T13:45:23.308Z,68.88
2023-05-05T13:49:36.465Z,67.91
2023-05-05T13:53:55.730Z,65.69
2023-05-05T13:58:00.726Z,64.31
2023-05-05T14:02:13.539Z,63.87
2023-05-05T14:06:23.522Z,62.44
2023-05-05T14:10:46.762Z,64.08
2023-05-05T14:15:08.856Z,64.48
2023-05-05T14:24:11.752Z,62.92
2023-05-05T14:32:59.919Z,61.47
2023-05-05T14:37:12.664Z,60.58
2023-05-05T14:41:25.997Z,61.22
2023-05-05T14:45:38.075Z,62.36
2023-05-05T14:50:11.412Z,60.71
2023-05-05T14:55:05.564Z,62.51
2023-05-05T14:59:12.202Z,63.18
2023-05-05T15:03:23.111Z,63.80
2023-05-05T15:07:28.684Z,65.01
2023-05-05T15:11:41.134Z,67.77
2023-05-05T15:15:47.164Z,69.22
2023-05-05T15:19:59.803Z,69.14
2023-05-05T15:24:40.655Z,69.46
2023-05-05T15:40:52.809Z,70.91
2023-05-05T15:57:09.361Z,71.19
2023-05-05T16:01:16.879Z,71.29
2023-05-05T16:05:18.774Z,71.23
2023-05-05T16:09:29.163Z,72.23
2023-05-05T16:13:30.415Z,71.51
2023-05-05T16:17:55.045Z,71.62
2023-05-05T16:22:36.202Z,71.88
2023-05-05T16:26:48.939Z,71.94
2023-05-05T16:31:22.417Z,71.20
2023-05-05T16:35:29.966Z,72.20
2023-05-05T16:39:34.389Z,73.32
2023-05-05T16:43:40.070Z,73.38
2023-05-05T16:47:44.388Z,72.88
2023-05-05T16:51:44.513Z,72.99
2023-05-05T16:55:51.821Z,73.06
2023-05-05T16:59:57.046Z,72.57
2023-05-05T17:04:06.312Z,72.86
2023-05-05T17:08:09.294Z,72.30
2023-05-05T17:12:13.835Z,72.18
2023-05-05T17:16:17.559Z,72.69
2023-05-05T17:20:45.229Z,72.96
2023-05-05T17:24:49.637Z,72.84
2023-05-05T17:28:59.706Z,72.76
2023-05-05T17:33:13.043Z,73.42
2023-05-05T17:37:15.079Z,73.77
2023-05-05T17:41:15.968Z,74.38
2023-05-05T17:45:27.487Z,75.98
2023-05-05T17:49:30.315Z,77.32
2023-05-05T17:53:33.160Z,77.59
2023-05-05T17:57:38.504Z,77.38
2023-05-05T18:01:46.704Z,77.31
2023-05-05T18:05:51.008Z,77.74
2023-05-05T18:09:52.723Z,78.44
2023-05-05T18:13:55.328Z,79.66
2023-05-05T18:17:57.442Z,80.94
2023-05-05T18:22:02.187Z,81.01
2023-05-05T18:26:18.138Z,80.10
2023-05-05T18:30:20.195Z,79.41
2023-05-05T18:34:55.442Z,78.92
2023-05-05T18:39:02.032Z,79.21
2023-05-05T18:43:06.949Z,79.03
2023-05-05T18:47:08.153Z,78.69
2023-05-05T18:51:18.603Z,78.58
2023-05-05T18:55:31.427Z,79.25
2023-05-05T18:59:49.250Z,79.08
2023-05-05T19:04:22.622Z,78.60
2023-05-05T19:08:31.836Z,78.95
2023-05-05T19:12:51.112Z,79.84
2023-05-05T19:17:08.327Z,79.69
2023-05-05T19:21:32.961Z,78.23
2023-05-05T19:25:39.247Z,77.94
2023-05-05T19:30:05.950Z,76.89
2023-05-05T19:34:16.824Z,76.95
2023-05-05T19:38:47.490Z,76.27
2023-05-05T19:43:00.119Z,75.36
2023-05-05T19:47:12.118Z,78.09
2023-05-05T19:51:31.295Z,80.16
2023-05-05T19:55:52.933Z,82.03
2023-05-05T20:00:26.692Z,81.21
2023-05-05T20:04:51.188Z,80.23
2023-05-05T20:09:30.075Z,78.25
2023-05-05T20:14:11.022Z,76.97
2023-05-05T20:18:36.149Z,76.57
2023-05-05T20:27:57.152Z,74.83
2023-05-05T20:37:27.561Z,76.41
2023-05-05T20:41:58.931Z,76.88
2023-05-05T20:46:43.045Z,77.04
2023-05-05T20:51:00.010Z,78.12
2023-05-05T20:55:20.476Z,79.80
2023-05-05T20:59:54.641Z,81.71
2023-05-05T21:04:45.114Z,82.85
2023-05-05T21:09:30.247Z,84.62
2023-05-05T21:14:07.741Z,84.78
2023-05-05T21:18:50.795Z,84.56
2023-05-05T21:23:08.311Z,84.82
2023-05-05T21:27:41.922Z,84.71
2023-05-05T21:32:15.240Z,85.16
2023-05-05T21:36:43.248Z,84.69
2023-05-05T21:41:16.209Z,83.35
2023-05-05T21:45:26.388Z,81.61
2023-05-05T21:49:37.079Z,80.87
2023-05-05T21:54:07.505Z,80.38
2023-05-05T21:59:05.425Z,80.35
2023-05-05T22:03:22.000Z,79.81
2023-05-05T22:07:35.308Z,79.53
2023-05-05T22:11:43.356Z,79.67
2023-05-05T22:15:58.844Z,79.57
2023-05-05T22:20:09.992Z,79.19
2023-05-05T22:24:18.849Z,79.90
2023-05-05T22:28:25.782Z,80.76
2023-05-05T22:32:36.533Z,80.95
2023-05-05T22:36:52.186Z,81.71
2023-05-05T22:41:10.446Z,82.09
2023-05-05T22:45:20.619Z,81.88
2023-05-05T22:53:56.915Z,80.58
2023-05-05T22:57:58.994Z,80.14
2023-05-05T23:02:16.952Z,80.18
2023-05-05T23:06:21.744Z,80.17
2023-05-05T23:10:30.007Z,80.65
2023-05-05T23:14:33.491Z,81.09
2023-05-05T23:18:52.070Z,81.70
2023-05-05T23:23:09.987Z,82.84
2023-05-05T23:27:36.358Z,83.49
2023-05-05T23:31:46.354Z,84.58
2023-05-05T23:35:50.446Z,84.01
2023-05-05T23:39:53.830Z,83.44
2023-05-05T23:43:56.132Z,83.81
2023-05-05T23:47:57.626Z,83.92
2023-05-05T23:52:01.047Z,85.48
2023-05-05T23:56:07.280Z,87.37
